Strona główna
METAR-TAF:

METAR-TAF

Lotnisko :

Port lotniczy Dźinnaha w Karaczi

Karaczi, Pakistan

Szerokość geograficzna: 24-54N, Długość geograficzna: 067-08E, wysokość: 21 m

Aktualna obserwacja pogody

Raport powstał 36 minut temu, godzina 21:30 UTC
Wiatr 7 kt od północny zachód
Temperatura 19°C
Wilgotność 56%
Ciśnienie 1016 hPa
Widzialność: 6000 m

METAR: OPKC 232130Z 32007KT 6000 NSC 19/10 Q1016 NOSIG

czas: 03:06 (22:06 UTC)

Prognoza

Raport powstał 6 godziny i 36 minut temu, godzina 15:30 UTC
Prognoza ważna od 23 godzina 18 UTC do 24 godzina 24 UTC
Wiatr 8 kt od północny zachód
Widzialność: 5000 m
zmętnienie
Przejściowo
od 24 godzina 01 UTC do 24 godzina 05 UTC
Wiatr 8 kt od północno-północny wschód
Widzialność: 4000 m
dym
Od UTC
Wiatr 5 kt od zachód w porywach dochodzący do 15 kt
Widzialność: 6000 m
Od UTC
Wiatr 8 kt od północno-północny zachód
Widzialność: 5000 m
zmętnienie

TAF: OPKC 231530Z 2318/2424 31008KT 5000 HZ NSC TEMPO 2401/2405 03008KT 4000 FU NSC FM 240800 26005G15KT 6000 NSC FM 241500 33008KT 5000 HZ NSC

Obserwacja i prognoza pogody dla ponad 4000 lotnisk (raport METAR i TAF).

Dostępne stacje oznaczono żółtymi i czerwonymi punktami na mapie.

Najedź kursorem aby zobaczyć nazwę stacji.

Kliknij aby zobaczyć obserwacje i prognozy pogody.

Aby zmienić mapę: kliknij na zielony przycisk z czarnym krzyżykiem, aby powiększyć; na zielony przycisk z myślnikiem, aby pomniejszyć; na zielone strzałki, aby przejść do map sąsiednich.


METAR-TAF: